Time;durP1;ratioP1;P1;durP2;ratioP2;P2;SDS_P1;SDS_P2;PMS_P1;PMS_P2;Temp;Humidity;BMP_temperature;BMP_pressure;BME280_temperature;BME280_humidity;BME280_pressure;Samples;Min_cycle;Max_cycle;Signal;HPM_P1;HPM_P2
2022/05/13 00:00:22;;;;;;;;;23.00;19.00;;;;;;;;6494111;31;8919;-59
2022/05/13 00:06:24;;;;;;;;;21.67;19.33;;;;;;;;6493829;46;8958;-60
2022/05/13 00:12:29;;;;;;;;;23.67;20.00;;;;;;;;6493098;46;8900;-60
2022/05/13 00:18:32;;;;;;;;;23.00;23.00;;;;;;;;6493785;39;8897;-59
2022/05/13 00:24:34;;;;;;;;;30.67;29.00;;;;;;;;6493320;46;8908;-60
2022/05/13 00:30:39;;;;;;;;;22.67;22.00;;;;;;;;6493390;46;8921;-59
2022/05/13 00:36:42;;;;;;;;;20.67;20.67;;;;;;;;6494503;39;8889;-59
2022/05/13 00:42:46;;;;;;;;;17.33;17.33;;;;;;;;6493464;46;8906;-59
2022/05/13 00:48:49;;;;;;;;;26.67;24.00;;;;;;;;6493454;39;8908;-60
2022/05/13 00:54:51;;;;;;;;;20.33;20.33;;;;;;;;6492862;46;8938;-59
2022/05/13 01:00:54;;;;;;;;;19.33;19.33;;;;;;;;6493598;31;8885;-59
2022/05/13 01:07:00;;;;;;;;;18.67;17.00;;;;;;;;6494260;39;8996;-59
2022/05/13 01:13:08;;;;;;;;;20.67;20.67;;;;;;;;6493196;39;8869;-59
2022/05/13 01:19:10;;;;;;;;;21.67;19.67;;;;;;;;6494140;39;9336;-61
2022/05/13 01:25:15;;;;;;;;;22.00;21.67;;;;;;;;6493759;31;8991;-59
2022/05/13 01:31:23;;;;;;;;;22.67;21.33;;;;;;;;6493671;39;8886;-59
2022/05/13 01:37:26;;;;;;;;;19.67;17.00;;;;;;;;6493603;39;8899;-59
2022/05/13 01:43:30;;;;;;;;;20.33;20.33;;;;;;;;6492959;39;8903;-60
2022/05/13 01:49:32;;;;;;;;;19.33;17.67;;;;;;;;6493247;39;9481;-60
2022/05/13 01:55:35;;;;;;;;;21.67;20.33;;;;;;;;6492841;31;9701;-60
2022/05/13 02:01:37;;;;;;;;;22.67;19.33;;;;;;;;6493495;39;8956;-59
2022/05/13 02:07:40;;;;;;;;;21.00;17.67;;;;;;;;6493010;31;9012;-60
2022/05/13 02:13:44;;;;;;;;;16.33;16.33;;;;;;;;6491951;31;8888;-60
2022/05/13 02:19:46;;;;;;;;;15.33;12.67;;;;;;;;6493663;31;8874;-58
2022/05/13 02:25:50;;;;;;;;;18.00;17.67;;;;;;;;6492015;31;9678;-59
2022/05/13 02:31:52;;;;;;;;;22.33;21.00;;;;;;;;6492875;47;8865;-58
2022/05/13 02:37:54;;;;;;;;;21.00;20.00;;;;;;;;6492347;39;10107;-59
2022/05/13 02:43:56;;;;;;;;;21.00;18.00;;;;;;;;6492370;39;8941;-59
2022/05/13 02:50:18;;;;;;;;;20.00;18.33;;;;;;;;6493521;31;8892;-58
2022/05/13 02:56:21;;;;;;;;;22.33;22.33;;;;;;;;6492168;47;8929;-59
2022/05/13 03:02:24;;;;;;;;;19.00;18.67;;;;;;;;6492360;47;8993;-60
2022/05/13 03:08:26;;;;;;;;;22.67;22.67;;;;;;;;6493581;39;9648;-59
2022/05/13 03:14:28;;;;;;;;;26.00;21.67;;;;;;;;6491794;31;8943;-59
2022/05/13 03:20:30;;;;;;;;;27.00;20.67;;;;;;;;6495658;31;8949;-59
2022/05/13 03:26:32;;;;;;;;;25.50;24.00;;;;;;;;6493314;39;8932;-59
2022/05/13 03:32:35;;;;;;;;;25.00;23.33;;;;;;;;6494590;46;8882;-60
2022/05/13 03:38:40;;;;;;;;;26.33;23.67;;;;;;;;6494809;39;8955;-59
2022/05/13 03:44:43;;;;;;;;;25.67;25.33;;;;;;;;6493332;31;8879;-60
2022/05/13 03:50:46;;;;;;;;;29.00;26.33;;;;;;;;6494233;31;8881;-59
2022/05/13 03:56:50;;;;;;;;;31.67;28.00;;;;;;;;6493808;39;8882;-59
2022/05/13 04:02:53;;;;;;;;;30.00;26.67;;;;;;;;6467504;39;8999;-59
2022/05/13 04:08:56;;;;;;;;;29.67;26.33;;;;;;;;6493629;39;8964;-59
